sensor_id;sensor_type;location;lat;lon;timestamp;P1;P2;P0
35654;PMS1003;21773;50.010;19.972;2024-01-27T00:02:34;2.50;2.00;2.00
35654;PMS1003;21773;50.010;19.972;2024-01-27T00:05:37;3.60;3.60;3.60
35654;PMS1003;21773;50.010;19.972;2024-01-27T00:08:42;3.00;2.40;2.40
35654;PMS1003;21773;50.010;19.972;2024-01-27T00:11:45;3.00;3.00;3.00
35654;PMS1003;21773;50.010;19.972;2024-01-27T00:14:48;3.80;3.20;3.00
35654;PMS1003;21773;50.010;19.972;2024-01-27T00:17:51;3.00;2.25;2.00
35654;PMS1003;21773;50.010;19.972;2024-01-27T00:24:24;2.00;2.00;2.00
35654;PMS1003;21773;50.010;19.972;2024-01-27T00:27:29;4.00;4.00;3.40
35654;PMS1003;21773;50.010;19.972;2024-01-27T00:30:32;3.00;3.00;3.00
35654;PMS1003;21773;50.010;19.972;2024-01-27T00:33:35;1.00;1.00;1.00
35654;PMS1003;21773;50.010;19.972;2024-01-27T00:36:42;4.00;4.00;3.40
35654;PMS1003;21773;50.010;19.972;2024-01-27T00:39:52;3.00;2.00;2.00
35654;PMS1003;21773;50.010;19.972;2024-01-27T00:42:55;1.00;1.00;1.00
35654;PMS1003;21773;50.010;19.972;2024-01-27T00:45:58;3.00;2.00;2.00
35654;PMS1003;21773;50.010;19.972;2024-01-27T00:49:01;3.00;3.00;2.00
35654;PMS1003;21773;50.010;19.972;2024-01-27T00:52:04;2.40;2.40;2.00
35654;PMS1003;21773;50.010;19.972;2024-01-27T00:55:09;2.00;2.00;2.00
35654;PMS1003;21773;50.010;19.972;2024-01-27T00:58:12;4.00;4.00;3.00
35654;PMS1003;21773;50.010;19.972;2024-01-27T01:01:15;2.80;2.80;2.80
35654;PMS1003;21773;50.010;19.972;2024-01-27T01:04:19;2.00;2.00;2.00
35654;PMS1003;21773;50.010;19.972;2024-01-27T01:07:22;3.00;3.00;2.40
35654;PMS1003;21773;50.010;19.972;2024-01-27T01:10:26;4.00;3.60;3.00
35654;PMS1003;21773;50.010;19.972;2024-01-27T01:13:29;5.00;4.00;4.00
35654;PMS1003;21773;50.010;19.972;2024-01-27T01:16:32;3.50;3.00;3.00
35654;PMS1003;21773;50.010;19.972;2024-01-27T01:19:36;3.00;3.00;3.00
35654;PMS1003;21773;50.010;19.972;2024-01-27T01:22:39;2.00;2.00;2.00
35654;PMS1003;21773;50.010;19.972;2024-01-27T01:25:43;3.00;3.00;3.00
35654;PMS1003;21773;50.010;19.972;2024-01-27T01:28:47;3.00;2.00;2.00
35654;PMS1003;21773;50.010;19.972;2024-01-27T01:31:50;3.00;3.00;2.00
35654;PMS1003;21773;50.010;19.972;2024-01-27T01:34:53;6.40;5.40;5.40
35654;PMS1003;21773;50.010;19.972;2024-01-27T01:37:56;4.00;4.00;3.60
35654;PMS1003;21773;50.010;19.972;2024-01-27T01:41:00;4.00;3.00;3.00
35654;PMS1003;21773;50.010;19.972;2024-01-27T01:44:03;3.00;3.00;3.00
35654;PMS1003;21773;50.010;19.972;2024-01-27T01:47:07;3.00;3.00;2.60
35654;PMS1003;21773;50.010;19.972;2024-01-27T01:50:10;2.00;2.00;2.00
35654;PMS1003;21773;50.010;19.972;2024-01-27T01:53:14;3.00;3.00;3.00
35654;PMS1003;21773;50.010;19.972;2024-01-27T01:56:19;3.00;3.00;2.75
35654;PMS1003;21773;50.010;19.972;2024-01-27T01:59:22;3.00;3.00;3.00
35654;PMS1003;21773;50.010;19.972;2024-01-27T02:02:25;3.00;3.00;3.00
35654;PMS1003;21773;50.010;19.972;2024-01-27T02:05:28;2.00;1.20;1.00
35654;PMS1003;21773;50.010;19.972;2024-01-27T02:08:31;3.60;3.60;3.00
35654;PMS1003;21773;50.010;19.972;2024-01-27T02:11:36;2.00;2.00;2.00
35654;PMS1003;21773;50.010;19.972;2024-01-27T02:14:39;3.00;3.00;2.60
35654;PMS1003;21773;50.010;19.972;2024-01-27T02:17:42;4.00;3.00;3.00
35654;PMS1003;21773;50.010;19.972;2024-01-27T02:20:45;4.60;4.40;4.40
35654;PMS1003;21773;50.010;19.972;2024-01-27T02:23:48;2.20;2.20;2.00
35654;PMS1003;21773;50.010;19.972;2024-01-27T02:26:53;3.00;3.00;3.00
35654;PMS1003;21773;50.010;19.972;2024-01-27T02:29:56;4.00;3.20;2.60
35654;PMS1003;21773;50.010;19.972;2024-01-27T02:32:59;2.00;2.00;2.00
35654;PMS1003;21773;50.010;19.972;2024-01-27T02:36:03;8.00;6.00;5.00
35654;PMS1003;21773;50.010;19.972;2024-01-27T02:39:06;3.00;3.00;2.00
35654;PMS1003;21773;50.010;19.972;2024-01-27T02:42:11;5.20;5.00;4.00
35654;PMS1003;21773;50.010;19.972;2024-01-27T02:45:14;4.00;3.75;3.00
35654;PMS1003;21773;50.010;19.972;2024-01-27T02:48:17;3.00;3.00;3.00
35654;PMS1003;21773;50.010;19.972;2024-01-27T02:51:21;6.00;5.00;4.00
35654;PMS1003;21773;50.010;19.972;2024-01-27T02:54:24;3.60;3.60;3.00
35654;PMS1003;21773;50.010;19.972;2024-01-27T02:57:30;5.00;4.00;3.50
35654;PMS1003;21773;50.010;19.972;2024-01-27T03:00:33;4.00;3.00;3.00
35654;PMS1003;21773;50.010;19.972;2024-01-27T03:03:37;4.33;4.33;4.00
35654;PMS1003;21773;50.010;19.972;2024-01-27T03:06:40;4.60;4.00;3.00
35654;PMS1003;21773;50.010;19.972;2024-01-27T03:09:43;2.80;2.80;2.20
35654;PMS1003;21773;50.010;19.972;2024-01-27T03:12:48;4.00;4.00;3.00
35654;PMS1003;21773;50.010;19.972;2024-01-27T03:15:51;5.40;4.00;3.40
35654;PMS1003;21773;50.010;19.972;2024-01-27T03:18:54;3.80;3.00;3.00
35654;PMS1003;21773;50.010;19.972;2024-01-27T03:21:57;4.00;4.00;3.00
35654;PMS1003;21773;50.010;19.972;2024-01-27T03:25:00;4.40;4.40;4.00
35654;PMS1003;21773;50.010;19.972;2024-01-27T03:28:05;4.00;4.00;4.00
35654;PMS1003;21773;50.010;19.972;2024-01-27T03:31:08;7.00;5.00;5.00
35654;PMS1003;21773;50.010;19.972;2024-01-27T03:34:11;4.00;4.00;4.00
35654;PMS1003;21773;50.010;19.972;2024-01-27T03:37:16;5.00;4.00;3.00
35654;PMS1003;21773;50.010;19.972;2024-01-27T03:40:19;5.00;5.00;5.00
35654;PMS1003;21773;50.010;19.972;2024-01-27T03:43:23;4.75;4.00;3.00
35654;PMS1003;21773;50.010;19.972;2024-01-27T03:46:26;5.50;5.00;4.00
35654;PMS1003;21773;50.010;19.972;2024-01-27T03:49:29;5.40;5.00;4.40
35654;PMS1003;21773;50.010;19.972;2024-01-27T03:52:33;3.00;3.00;3.00
35654;PMS1003;21773;50.010;19.972;2024-01-27T03:55:36;6.00;5.00;5.00
35654;PMS1003;21773;50.010;19.972;2024-01-27T03:58:41;3.00;3.00;2.40
35654;PMS1003;21773;50.010;19.972;2024-01-27T04:01:44;3.40;3.00;3.00
35654;PMS1003;21773;50.010;19.972;2024-01-27T04:04:47;4.00;3.40;3.00
35654;PMS1003;21773;50.010;19.972;2024-01-27T04:07:51;4.00;4.00;3.00
35654;PMS1003;21773;50.010;19.972;2024-01-27T04:10:54;3.00;3.00;3.00
35654;PMS1003;21773;50.010;19.972;2024-01-27T04:13:58;5.00;4.00;4.00
35654;PMS1003;21773;50.010;19.972;2024-01-27T04:17:03;5.75;5.00;4.00
35654;PMS1003;21773;50.010;19.972;2024-01-27T04:20:07;3.00;3.00;2.00
35654;PMS1003;21773;50.010;19.972;2024-01-27T04:23:11;6.00;5.00;4.00
35654;PMS1003;21773;50.010;19.972;2024-01-27T04:26:14;3.80;3.80;3.20
35654;PMS1003;21773;50.010;19.972;2024-01-27T04:29:21;4.50;4.00;4.00
35654;PMS1003;21773;50.010;19.972;2024-01-27T04:32:24;3.80;3.20;3.00
35654;PMS1003;21773;50.010;19.972;2024-01-27T04:35:28;4.00;3.40;3.00
35654;PMS1003;21773;50.010;19.972;2024-01-27T04:38:31;6.00;5.50;5.00
35654;PMS1003;21773;50.010;19.972;2024-01-27T04:41:34;5.50;5.00;5.00
35654;PMS1003;21773;50.010;19.972;2024-01-27T04:44:40;3.60;3.00;3.00
35654;PMS1003;21773;50.010;19.972;2024-01-27T04:47:44;4.60;4.60;4.00
35654;PMS1003;21773;50.010;19.972;2024-01-27T04:50:47;5.00;5.00;4.00
35654;PMS1003;21773;50.010;19.972;2024-01-27T04:53:50;3.00;3.00;2.40
35654;PMS1003;21773;50.010;19.972;2024-01-27T04:56:53;3.80;3.00;3.00
35654;PMS1003;21773;50.010;19.972;2024-01-27T04:59:58;4.00;4.00;4.00
35654;PMS1003;21773;50.010;19.972;2024-01-27T05:03:01;3.00;3.00;3.00
35654;PMS1003;21773;50.010;19.972;2024-01-27T05:06:07;3.00;3.00;2.40
35654;PMS1003;21773;50.010;19.972;2024-01-27T05:09:11;3.00;3.00;3.00
35654;PMS1003;21773;50.010;19.972;2024-01-27T05:12:14;4.00;4.00;3.00
35654;PMS1003;21773;50.010;19.972;2024-01-27T05:15:19;3.00;2.00;2.00
35654;PMS1003;21773;50.010;19.972;2024-01-27T05:18:22;5.00;4.00;4.00
35654;PMS1003;21773;50.010;19.972;2024-01-27T05:21:25;4.00;3.00;3.00
35654;PMS1003;21773;50.010;19.972;2024-01-27T05:24:29;4.00;3.00;3.00
35654;PMS1003;21773;50.010;19.972;2024-01-27T05:27:32;5.00;5.00;4.00
35654;PMS1003;21773;50.010;19.972;2024-01-27T05:30:36;3.40;3.40;3.40
35654;PMS1003;21773;50.010;19.972;2024-01-27T05:33:40;4.60;4.60;4.00
35654;PMS1003;21773;50.010;19.972;2024-01-27T05:36:43;5.00;4.00;4.00
35654;PMS1003;21773;50.010;19.972;2024-01-27T05:39:46;2.20;2.20;2.20
35654;PMS1003;21773;50.010;19.972;2024-01-27T05:42:49;4.25;3.00;3.00
35654;PMS1003;21773;50.010;19.972;2024-01-27T05:45:54;5.00;5.00;4.00
35654;PMS1003;21773;50.010;19.972;2024-01-27T05:48:57;3.00;2.00;2.00
35654;PMS1003;21773;50.010;19.972;2024-01-27T05:52:05;3.00;3.00;3.00
35654;PMS1003;21773;50.010;19.972;2024-01-27T05:55:08;4.00;4.00;3.00
35654;PMS1003;21773;50.010;19.972;2024-01-27T05:58:13;8.40;6.40;5.40
35654;PMS1003;21773;50.010;19.972;2024-01-27T06:01:18;3.00;3.00;2.00
35654;PMS1003;21773;50.010;19.972;2024-01-27T06:04:22;4.00;3.00;2.00
35654;PMS1003;21773;50.010;19.972;2024-01-27T06:07:25;3.00;3.00;2.00
35654;PMS1003;21773;50.010;19.972;2024-01-27T06:10:28;4.00;3.00;2.00
35654;PMS1003;21773;50.010;19.972;2024-01-27T06:13:32;3.00;3.00;2.75
35654;PMS1003;21773;50.010;19.972;2024-01-27T06:16:37;3.00;3.00;2.40
35654;PMS1003;21773;50.010;19.972;2024-01-27T06:19:40;4.00;4.00;3.00
35654;PMS1003;21773;50.010;19.972;2024-01-27T06:22:44;5.00;3.00;2.00
35654;PMS1003;21773;50.010;19.972;2024-01-27T06:25:47;2.00;2.00;2.00
35654;PMS1003;21773;50.010;19.972;2024-01-27T06:28:50;2.00;2.00;2.00
35654;PMS1003;21773;50.010;19.972;2024-01-27T06:31:54;4.60;4.60;4.00
35654;PMS1003;21773;50.010;19.972;2024-01-27T06:34:57;3.25;3.00;2.00
35654;PMS1003;21773;50.010;19.972;2024-01-27T06:38:01;4.00;4.00;2.00
35654;PMS1003;21773;50.010;19.972;2024-01-27T06:41:04;3.50;3.00;2.50
35654;PMS1003;21773;50.010;19.972;2024-01-27T06:44:07;3.60;3.60;3.00
35654;PMS1003;21773;50.010;19.972;2024-01-27T06:47:11;4.00;3.80;2.80
35654;PMS1003;21773;50.010;19.972;2024-01-27T06:50:14;3.00;2.25;1.50
35654;PMS1003;21773;50.010;19.972;2024-01-27T06:53:18;2.80;2.00;1.80
35654;PMS1003;21773;50.010;19.972;2024-01-27T06:56:21;3.60;3.00;2.00
35654;PMS1003;21773;50.010;19.972;2024-01-27T06:59:24;3.00;3.00;2.00
35654;PMS1003;21773;50.010;19.972;2024-01-27T07:02:28;4.00;2.60;2.00
35654;PMS1003;21773;50.010;19.972;2024-01-27T07:05:32;3.00;3.00;3.00
35654;PMS1003;21773;50.010;19.972;2024-01-27T07:08:40;3.00;2.00;1.00
35654;PMS1003;21773;50.010;19.972;2024-01-27T07:11:43;3.00;2.67;1.67
35654;PMS1003;21773;50.010;19.972;2024-01-27T07:14:46;1.60;1.00;1.00
35654;PMS1003;21773;50.010;19.972;2024-01-27T07:17:51;2.00;2.00;1.75
35654;PMS1003;21773;50.010;19.972;2024-01-27T07:20:55;3.00;2.60;2.60
35654;PMS1003;21773;50.010;19.972;2024-01-27T07:24:01;3.00;2.00;2.00
35654;PMS1003;21773;50.010;19.972;2024-01-27T07:27:04;4.20;3.00;2.20
35654;PMS1003;21773;50.010;19.972;2024-01-27T07:30:08;2.00;2.00;1.00
35654;PMS1003;21773;50.010;19.972;2024-01-27T07:33:14;2.00;2.00;1.00
35654;PMS1003;21773;50.010;19.972;2024-01-27T07:36:17;3.60;3.00;3.00
35654;PMS1003;21773;50.010;19.972;2024-01-27T07:39:20;5.00;3.00;2.00
35654;PMS1003;21773;50.010;19.972;2024-01-27T07:42:24;3.00;3.00;2.00
35654;PMS1003;21773;50.010;19.972;2024-01-27T07:45:27;2.00;1.00;1.00
35654;PMS1003;21773;50.010;19.972;2024-01-27T07:48:31;4.40;2.00;2.00
35654;PMS1003;21773;50.010;19.972;2024-01-27T07:51:35;4.60;4.40;3.60
35654;PMS1003;21773;50.010;19.972;2024-01-27T07:54:38;3.50;2.75;2.00
35654;PMS1003;21773;50.010;19.972;2024-01-27T07:57:41;4.00;4.00;3.00
35654;PMS1003;21773;50.010;19.972;2024-01-27T08:00:45;2.50;2.50;1.50
35654;PMS1003;21773;50.010;19.972;2024-01-27T08:03:49;3.67;3.67;3.00
35654;PMS1003;21773;50.010;19.972;2024-01-27T08:06:53;3.00;3.00;2.00
35654;PMS1003;21773;50.010;19.972;2024-01-27T08:09:56;2.60;2.00;2.00
35654;PMS1003;21773;50.010;19.972;2024-01-27T08:12:59;2.00;1.00;1.00
35654;PMS1003;21773;50.010;19.972;2024-01-27T08:16:03;3.00;3.00;3.00
35654;PMS1003;21773;50.010;19.972;2024-01-27T08:19:08;2.40;2.00;1.80
35654;PMS1003;21773;50.010;19.972;2024-01-27T08:22:11;3.00;3.00;2.00
35654;PMS1003;21773;50.010;19.972;2024-01-27T08:25:14;2.00;2.00;2.00
35654;PMS1003;21773;50.010;19.972;2024-01-27T08:28:18;4.00;4.00;3.00
35654;PMS1003;21773;50.010;19.972;2024-01-27T08:31:21;4.00;2.00;1.60
35654;PMS1003;21773;50.010;19.972;2024-01-27T08:34:26;3.00;3.00;2.40
35654;PMS1003;21773;50.010;19.972;2024-01-27T08:37:29;5.00;3.00;2.60
35654;PMS1003;21773;50.010;19.972;2024-01-27T08:40:34;3.00;3.00;3.00
35654;PMS1003;21773;50.010;19.972;2024-01-27T08:43:37;3.60;3.00;3.00
35654;PMS1003;21773;50.010;19.972;2024-01-27T08:46:40;2.00;2.00;2.00
35654;PMS1003;21773;50.010;19.972;2024-01-27T08:49:45;5.00;5.00;4.40
35654;PMS1003;21773;50.010;19.972;2024-01-27T08:52:48;3.00;3.00;2.00
35654;PMS1003;21773;50.010;19.972;2024-01-27T08:55:51;4.75;4.00;3.00
35654;PMS1003;21773;50.010;19.972;2024-01-27T08:58:54;4.00;3.00;3.00
35654;PMS1003;21773;50.010;19.972;2024-01-27T09:01:57;4.00;4.00;3.00
35654;PMS1003;21773;50.010;19.972;2024-01-27T09:05:02;4.00;4.00;3.00
35654;PMS1003;21773;50.010;19.972;2024-01-27T09:08:05;3.00;3.00;3.00
35654;PMS1003;21773;50.010;19.972;2024-01-27T09:11:09;4.00;4.00;3.00
35654;PMS1003;21773;50.010;19.972;2024-01-27T09:14:13;3.00;2.60;1.60
35654;PMS1003;21773;50.010;19.972;2024-01-27T09:17:16;3.60;3.00;3.00
35654;PMS1003;21773;50.010;19.972;2024-01-27T09:20:20;3.00;3.00;3.00
35654;PMS1003;21773;50.010;19.972;2024-01-27T09:23:23;5.00;4.00;4.00
35654;PMS1003;21773;50.010;19.972;2024-01-27T09:26:27;5.25;4.50;3.25
35654;PMS1003;21773;50.010;19.972;2024-01-27T09:33:06;3.00;3.00;2.00
35654;PMS1003;21773;50.010;19.972;2024-01-27T09:36:11;4.00;4.00;3.00
35654;PMS1003;21773;50.010;19.972;2024-01-27T09:39:14;4.40;3.00;2.00
35654;PMS1003;21773;50.010;19.972;2024-01-27T09:42:19;3.00;3.00;3.00
35654;PMS1003;21773;50.010;19.972;2024-01-27T09:45:24;3.40;3.00;3.00
35654;PMS1003;21773;50.010;19.972;2024-01-27T09:48:28;4.00;4.00;3.00
35654;PMS1003;21773;50.010;19.972;2024-01-27T09:51:33;4.40;4.00;3.00
35654;PMS1003;21773;50.010;19.972;2024-01-27T09:54:37;5.40;3.40;3.00
35654;PMS1003;21773;50.010;19.972;2024-01-27T09:57:40;5.00;4.00;4.00
35654;PMS1003;21773;50.010;19.972;2024-01-27T10:00:44;7.00;6.00;5.00
35654;PMS1003;21773;50.010;19.972;2024-01-27T10:03:48;4.00;4.00;3.00
35654;PMS1003;21773;50.010;19.972;2024-01-27T10:06:53;5.00;4.00;3.00
35654;PMS1003;21773;50.010;19.972;2024-01-27T10:10:00;7.00;6.00;5.00
35654;PMS1003;21773;50.010;19.972;2024-01-27T10:13:03;4.00;4.00;3.00
35654;PMS1003;21773;50.010;19.972;2024-01-27T10:16:08;4.00;3.40;3.00
35654;PMS1003;21773;50.010;19.972;2024-01-27T10:19:14;3.50;3.25;3.00
35654;PMS1003;21773;50.010;19.972;2024-01-27T10:22:21;6.00;5.00;4.00
35654;PMS1003;21773;50.010;19.972;2024-01-27T10:25:24;4.80;4.00;3.00
35654;PMS1003;21773;50.010;19.972;2024-01-27T10:28:27;5.00;5.00;4.00
35654;PMS1003;21773;50.010;19.972;2024-01-27T10:31:33;6.00;5.50;5.00
35654;PMS1003;21773;50.010;19.972;2024-01-27T10:34:37;4.00;3.00;3.00
35654;PMS1003;21773;50.010;19.972;2024-01-27T10:37:43;4.60;3.00;2.40
35654;PMS1003;21773;50.010;19.972;2024-01-27T10:40:46;5.00;4.00;3.00
35654;PMS1003;21773;50.010;19.972;2024-01-27T10:43:49;3.75;3.75;3.00
35654;PMS1003;21773;50.010;19.972;2024-01-27T10:46:54;5.00;5.00;4.60
35654;PMS1003;21773;50.010;19.972;2024-01-27T10:50:04;7.00;7.00;6.00
35654;PMS1003;21773;50.010;19.972;2024-01-27T10:53:15;7.00;6.00;5.00
35654;PMS1003;21773;50.010;19.972;2024-01-27T10:56:25;7.00;5.00;4.40
35654;PMS1003;21773;50.010;19.972;2024-01-27T10:59:30;9.00;7.00;6.00
35654;PMS1003;21773;50.010;19.972;2024-01-27T11:02:34;6.00;6.00;5.00
35654;PMS1003;21773;50.010;19.972;2024-01-27T11:05:42;6.00;5.00;4.00
35654;PMS1003;21773;50.010;19.972;2024-01-27T11:08:47;5.25;5.00;4.00
35654;PMS1003;21773;50.010;19.972;2024-01-27T11:11:52;5.00;4.00;4.00
35654;PMS1003;21773;50.010;19.972;2024-01-27T11:14:56;6.80;4.80;4.80
35654;PMS1003;21773;50.010;19.972;2024-01-27T11:18:00;7.00;6.00;5.00
35654;PMS1003;21773;50.010;19.972;2024-01-27T11:21:05;6.00;5.25;4.75
35654;PMS1003;21773;50.010;19.972;2024-01-27T11:24:14;8.00;7.00;6.00
35654;PMS1003;21773;50.010;19.972;2024-01-27T11:27:18;7.00;6.00;5.00
35654;PMS1003;21773;50.010;19.972;2024-01-27T11:30:25;5.20;5.20;4.00
35654;PMS1003;21773;50.010;19.972;2024-01-27T11:33:30;7.00;7.00;6.00
35654;PMS1003;21773;50.010;19.972;2024-01-27T11:36:33;8.00;6.00;4.00
35654;PMS1003;21773;50.010;19.972;2024-01-27T11:39:38;7.00;6.00;4.20
35654;PMS1003;21773;50.010;19.972;2024-01-27T11:42:41;5.60;5.20;4.00
35654;PMS1003;21773;50.010;19.972;2024-01-27T11:45:54;8.40;8.00;7.00
35654;PMS1003;21773;50.010;19.972;2024-01-27T11:48:58;7.60;6.00;5.00
35654;PMS1003;21773;50.010;19.972;2024-01-27T11:52:01;7.00;7.00;5.60
35654;PMS1003;21773;50.010;19.972;2024-01-27T11:55:06;9.00;8.80;7.00
35654;PMS1003;21773;50.010;19.972;2024-01-27T11:58:10;8.00;7.25;6.50
35654;PMS1003;21773;50.010;19.972;2024-01-27T12:01:13;10.00;9.00;7.00
35654;PMS1003;21773;50.010;19.972;2024-01-27T12:04:16;7.40;7.40;6.40
35654;PMS1003;21773;50.010;19.972;2024-01-27T12:07:21;8.00;7.00;6.00
35654;PMS1003;21773;50.010;19.972;2024-01-27T12:10:26;7.20;6.60;6.00
35654;PMS1003;21773;50.010;19.972;2024-01-27T12:13:29;8.00;7.00;6.00
35654;PMS1003;21773;50.010;19.972;2024-01-27T12:16:32;4.80;4.20;3.00
35654;PMS1003;21773;50.010;19.972;2024-01-27T12:19:35;6.00;6.00;5.00
35654;PMS1003;21773;50.010;19.972;2024-01-27T12:22:39;9.00;7.50;7.00
35654;PMS1003;21773;50.010;19.972;2024-01-27T12:25:44;10.40;9.40;8.00
35654;PMS1003;21773;50.010;19.972;2024-01-27T12:28:55;8.00;8.00;7.20
35654;PMS1003;21773;50.010;19.972;2024-01-27T12:31:59;9.00;8.00;7.00
35654;PMS1003;21773;50.010;19.972;2024-01-27T12:35:04;8.60;8.60;7.00
35654;PMS1003;21773;50.010;19.972;2024-01-27T12:38:08;8.00;7.00;5.25
35654;PMS1003;21773;50.010;19.972;2024-01-27T12:41:13;10.00;9.00;7.00
35654;PMS1003;21773;50.010;19.972;2024-01-27T12:44:16;7.50;7.50;6.50
35654;PMS1003;21773;50.010;19.972;2024-01-27T12:47:20;10.00;8.00;7.00
35654;PMS1003;21773;50.010;19.972;2024-01-27T12:50:23;7.75;6.00;4.00
35654;PMS1003;21773;50.010;19.972;2024-01-27T12:53:26;8.00;7.60;7.00
35654;PMS1003;21773;50.010;19.972;2024-01-27T12:56:30;7.60;7.60;6.00
35654;PMS1003;21773;50.010;19.972;2024-01-27T12:59:36;11.60;10.00;8.60
35654;PMS1003;21773;50.010;19.972;2024-01-27T13:02:39;8.00;7.00;5.00
35654;PMS1003;21773;50.010;19.972;2024-01-27T13:05:43;8.00;7.20;6.00
35654;PMS1003;21773;50.010;19.972;2024-01-27T13:08:46;7.50;6.00;5.00
35654;PMS1003;21773;50.010;19.972;2024-01-27T13:11:50;8.60;8.00;6.00
35654;PMS1003;21773;50.010;19.972;2024-01-27T13:14:53;7.40;7.00;6.40
35654;PMS1003;21773;50.010;19.972;2024-01-27T13:17:57;8.00;7.25;6.25
35654;PMS1003;21773;50.010;19.972;2024-01-27T13:21:00;8.00;6.00;5.00
35654;PMS1003;21773;50.010;19.972;2024-01-27T13:24:05;8.00;7.00;6.00
35654;PMS1003;21773;50.010;19.972;2024-01-27T13:27:12;9.20;9.00;8.00
35654;PMS1003;21773;50.010;19.972;2024-01-27T13:30:15;6.50;6.00;5.50
35654;PMS1003;21773;50.010;19.972;2024-01-27T13:33:21;7.80;5.80;4.20
35654;PMS1003;21773;50.010;19.972;2024-01-27T13:36:29;9.40;8.00;6.00
35654;PMS1003;21773;50.010;19.972;2024-01-27T13:39:32;10.40;8.00;7.00
35654;PMS1003;21773;50.010;19.972;2024-01-27T13:42:38;9.00;8.00;6.75
35654;PMS1003;21773;50.010;19.972;2024-01-27T13:45:41;8.00;7.00;6.00
35654;PMS1003;21773;50.010;19.972;2024-01-27T13:48:45;6.00;6.00;5.00
35654;PMS1003;21773;50.010;19.972;2024-01-27T13:51:48;9.80;8.00;6.40
35654;PMS1003;21773;50.010;19.972;2024-01-27T13:54:51;10.00;9.00;7.00
35654;PMS1003;21773;50.010;19.972;2024-01-27T13:57:56;8.60;8.00;7.00
35654;PMS1003;21773;50.010;19.972;2024-01-27T14:00:59;10.00;8.75;7.00
35654;PMS1003;21773;50.010;19.972;2024-01-27T14:04:02;10.00;9.00;7.40
35654;PMS1003;21773;50.010;19.972;2024-01-27T14:07:07;8.50;8.00;6.50
35654;PMS1003;21773;50.010;19.972;2024-01-27T14:10:11;11.00;9.20;7.80
35654;PMS1003;21773;50.010;19.972;2024-01-27T14:13:16;12.00;9.00;8.00
35654;PMS1003;21773;50.010;19.972;2024-01-27T14:16:19;9.00;8.00;7.00
35654;PMS1003;21773;50.010;19.972;2024-01-27T14:19:22;8.00;7.00;6.00
35654;PMS1003;21773;50.010;19.972;2024-01-27T14:22:26;6.25;6.25;5.25
35654;PMS1003;21773;50.010;19.972;2024-01-27T14:25:29;11.00;9.00;7.00
35654;PMS1003;21773;50.010;19.972;2024-01-27T14:28:34;9.40;9.00;8.40
35654;PMS1003;21773;50.010;19.972;2024-01-27T14:31:37;7.60;7.60;6.60
35654;PMS1003;21773;50.010;19.972;2024-01-27T14:34:41;9.50;8.00;6.75
35654;PMS1003;21773;50.010;19.972;2024-01-27T14:37:44;8.25;7.00;6.00
35654;PMS1003;21773;50.010;19.972;2024-01-27T14:40:48;10.00;8.50;7.00
35654;PMS1003;21773;50.010;19.972;2024-01-27T14:43:52;8.00;7.00;7.00
35654;PMS1003;21773;50.010;19.972;2024-01-27T14:46:55;7.00;7.00;6.00
35654;PMS1003;21773;50.010;19.972;2024-01-27T14:49:59;10.40;9.80;8.00
35654;PMS1003;21773;50.010;19.972;2024-01-27T14:53:03;8.00;8.00;7.00
35654;PMS1003;21773;50.010;19.972;2024-01-27T14:56:06;8.20;8.20;7.00
35654;PMS1003;21773;50.010;19.972;2024-01-27T14:59:11;9.00;8.00;6.40
35654;PMS1003;21773;50.010;19.972;2024-01-27T15:02:15;10.00;9.00;7.40
35654;PMS1003;21773;50.010;19.972;2024-01-27T15:05:24;9.00;8.00;7.00
35654;PMS1003;21773;50.010;19.972;2024-01-27T15:08:27;9.40;9.00;8.00
35654;PMS1003;21773;50.010;19.972;2024-01-27T15:11:31;9.00;8.00;7.00
35654;PMS1003;21773;50.010;19.972;2024-01-27T15:14:35;9.80;8.80;7.00
35654;PMS1003;21773;50.010;19.972;2024-01-27T15:17:38;8.00;8.00;7.60
35654;PMS1003;21773;50.010;19.972;2024-01-27T15:20:41;9.25;9.00;8.00
35654;PMS1003;21773;50.010;19.972;2024-01-27T15:23:45;10.00;9.00;8.00
35654;PMS1003;21773;50.010;19.972;2024-01-27T15:26:48;9.00;8.00;7.00
35654;PMS1003;21773;50.010;19.972;2024-01-27T15:29:55;10.60;8.00;7.40
35654;PMS1003;21773;50.010;19.972;2024-01-27T15:32:58;9.00;8.00;7.60
35654;PMS1003;21773;50.010;19.972;2024-01-27T15:36:01;11.00;9.00;8.00
35654;PMS1003;21773;50.010;19.972;2024-01-27T15:39:04;11.80;10.00;8.80
35654;PMS1003;21773;50.010;19.972;2024-01-27T15:42:09;8.00;6.80;5.80
35654;PMS1003;21773;50.010;19.972;2024-01-27T15:45:14;10.00;9.00;7.40
35654;PMS1003;21773;50.010;19.972;2024-01-27T15:48:17;10.80;10.20;9.00
35654;PMS1003;21773;50.010;19.972;2024-01-27T15:51:21;10.00;9.00;8.00
35654;PMS1003;21773;50.010;19.972;2024-01-27T15:54:24;9.00;9.00;7.50
35654;PMS1003;21773;50.010;19.972;2024-01-27T15:57:27;13.00;11.50;10.00
35654;PMS1003;21773;50.010;19.972;2024-01-27T16:00:33;11.00;10.20;9.00
35654;PMS1003;21773;50.010;19.972;2024-01-27T16:03:37;12.00;11.00;9.80
35654;PMS1003;21773;50.010;19.972;2024-01-27T16:06:40;13.00;12.00;10.00
35654;PMS1003;21773;50.010;19.972;2024-01-27T16:09:45;11.00;10.00;9.00
35654;PMS1003;21773;50.010;19.972;2024-01-27T16:12:48;11.60;11.00;8.00
35654;PMS1003;21773;50.010;19.972;2024-01-27T16:15:53;10.60;10.00;8.60
35654;PMS1003;21773;50.010;19.972;2024-01-27T16:18:56;13.60;10.60;9.60
35654;PMS1003;21773;50.010;19.972;2024-01-27T16:21:59;13.00;12.00;10.20
35654;PMS1003;21773;50.010;19.972;2024-01-27T16:25:03;13.00;10.25;9.00
35654;PMS1003;21773;50.010;19.972;2024-01-27T16:28:06;12.50;12.00;10.00
35654;PMS1003;21773;50.010;19.972;2024-01-27T16:31:12;14.60;12.60;10.60
35654;PMS1003;21773;50.010;19.972;2024-01-27T16:34:15;14.25;13.00;10.25
35654;PMS1003;21773;50.010;19.972;2024-01-27T16:37:18;14.25;11.25;11.00
35654;PMS1003;21773;50.010;19.972;2024-01-27T16:40:22;13.60;12.60;10.60
35654;PMS1003;21773;50.010;19.972;2024-01-27T16:43:25;13.00;11.00;9.00
35654;PMS1003;21773;50.010;19.972;2024-01-27T16:46:30;16.00;14.00;12.00
35654;PMS1003;21773;50.010;19.972;2024-01-27T16:49:33;15.60;14.40;12.00
35654;PMS1003;21773;50.010;19.972;2024-01-27T16:52:36;16.00;14.00;12.50
35654;PMS1003;21773;50.010;19.972;2024-01-27T16:55:39;14.00;13.00;12.00
35654;PMS1003;21773;50.010;19.972;2024-01-27T16:58:43;13.40;12.00;10.00
35654;PMS1003;21773;50.010;19.972;2024-01-27T17:01:52;11.60;11.60;10.00
35654;PMS1003;21773;50.010;19.972;2024-01-27T17:04:55;15.50;12.50;11.00
35654;PMS1003;21773;50.010;19.972;2024-01-27T17:08:04;14.00;14.00;12.50
35654;PMS1003;21773;50.010;19.972;2024-01-27T17:11:07;13.75;13.00;11.75
35654;PMS1003;21773;50.010;19.972;2024-01-27T17:14:10;13.80;11.20;9.80
35654;PMS1003;21773;50.010;19.972;2024-01-27T17:17:15;13.00;11.50;10.00
35654;PMS1003;21773;50.010;19.972;2024-01-27T17:20:18;14.00;12.00;11.00
35654;PMS1003;21773;50.010;19.972;2024-01-27T17:23:22;14.40;13.40;11.40
35654;PMS1003;21773;50.010;19.972;2024-01-27T17:26:31;16.00;14.00;12.00
35654;PMS1003;21773;50.010;19.972;2024-01-27T17:29:35;15.00;12.60;10.60
35654;PMS1003;21773;50.010;19.972;2024-01-27T17:32:39;15.00;13.75;11.00
35654;PMS1003;21773;50.010;19.972;2024-01-27T17:35:44;16.00;14.00;12.00
35654;PMS1003;21773;50.010;19.972;2024-01-27T17:38:47;15.00;13.00;11.00
35654;PMS1003;21773;50.010;19.972;2024-01-27T17:41:51;14.00;12.00;11.00
35654;PMS1003;21773;50.010;19.972;2024-01-27T17:44:54;16.00;14.00;12.50